sensor_id;sensor_type;location;lat;lon;timestamp;pressure;altitude;pressure_sealevel;temperature;humidity
31239;BME280;17871;31.584;74.450;2022-07-24T00:01:45;97692.31;;;29.16;100.00
31239;BME280;17871;31.584;74.450;2022-07-24T00:04:14;97680.59;;;29.20;100.00
31239;BME280;17871;31.584;74.450;2022-07-24T00:06:44;97694.75;;;29.08;100.00
31239;BME280;17871;31.584;74.450;2022-07-24T00:09:13;97700.22;;;29.16;100.00
31239;BME280;17871;31.584;74.450;2022-07-24T00:11:42;97694.72;;;29.19;100.00
31239;BME280;17871;31.584;74.450;2022-07-24T00:14:11;97691.22;;;29.18;100.00
31239;BME280;17871;31.584;74.450;2022-07-24T00:16:41;97696.03;;;29.13;100.00
31239;BME280;17871;31.584;74.450;2022-07-24T00:19:10;97699.75;;;29.11;100.00
31239;BME280;17871;31.584;74.450;2022-07-24T00:21:39;97699.75;;;29.11;100.00
31239;BME280;17871;31.584;74.450;2022-07-24T00:24:08;97698.28;;;29.18;100.00
31239;BME280;17871;31.584;74.450;2022-07-24T00:26:37;97711.84;;;29.13;100.00
31239;BME280;17871;31.584;74.450;2022-07-24T00:29:06;97708.47;;;29.22;100.00
31239;BME280;17871;31.584;74.450;2022-07-24T00:31:36;97719.34;;;29.18;100.00
31239;BME280;17871;31.584;74.450;2022-07-24T00:34:05;97723.56;;;29.20;100.00
31239;BME280;17871;31.584;74.450;2022-07-24T00:36:34;97722.00;;;29.29;100.00
31239;BME280;17871;31.584;74.450;2022-07-24T00:39:04;97723.41;;;29.22;100.00
31239;BME280;17871;31.584;74.450;2022-07-24T00:41:34;97722.72;;;29.20;100.00
31239;BME280;17871;31.584;74.450;2022-07-24T00:44:06;97715.66;;;29.31;100.00
31239;BME280;17871;31.584;74.450;2022-07-24T00:46:37;97723.19;;;29.36;100.00
31239;BME280;17871;31.584;74.450;2022-07-24T00:49:12;97726.31;;;29.30;100.00
31239;BME280;17871;31.584;74.450;2022-07-24T00:51:53;97731.56;;;29.41;100.00
31239;BME280;17871;31.584;74.450;2022-07-24T00:54:23;97730.75;;;29.41;100.00
31239;BME280;17871;31.584;74.450;2022-07-24T00:56:53;97730.25;;;29.47;100.00
31239;BME280;17871;31.584;74.450;2022-07-24T00:59:23;97726.38;;;29.51;100.00
31239;BME280;17871;31.584;74.450;2022-07-24T01:01:53;97731.78;;;29.49;100.00
31239;BME280;17871;31.584;74.450;2022-07-24T01:04:22;97730.94;;;29.60;100.00
31239;BME280;17871;31.584;74.450;2022-07-24T01:06:52;97733.78;;;29.68;100.00
31239;BME280;17871;31.584;74.450;2022-07-24T01:09:21;97740.63;;;29.70;100.00
31239;BME280;17871;31.584;74.450;2022-07-24T01:11:51;97739.38;;;29.74;100.00
31239;BME280;17871;31.584;74.450;2022-07-24T01:14:21;97735.56;;;29.78;100.00
31239;BME280;17871;31.584;74.450;2022-07-24T01:16:50;97737.50;;;29.76;100.00
31239;BME280;17871;31.584;74.450;2022-07-24T01:19:20;97732.59;;;29.83;100.00
31239;BME280;17871;31.584;74.450;2022-07-24T01:21:52;97737.59;;;29.86;100.00
31239;BME280;17871;31.584;74.450;2022-07-24T01:24:22;97734.56;;;29.91;100.00
31239;BME280;17871;31.584;74.450;2022-07-24T01:26:51;97732.34;;;29.86;100.00
31239;BME280;17871;31.584;74.450;2022-07-24T01:29:20;97725.72;;;29.92;100.00
31239;BME280;17871;31.584;74.450;2022-07-24T01:31:49;97724.03;;;29.91;100.00
31239;BME280;17871;31.584;74.450;2022-07-24T01:34:19;97722.63;;;29.87;100.00
31239;BME280;17871;31.584;74.450;2022-07-24T01:36:48;97720.03;;;30.07;100.00
31239;BME280;17871;31.584;74.450;2022-07-24T01:39:17;97728.50;;;30.11;100.00
31239;BME280;17871;31.584;74.450;2022-07-24T01:41:47;97726.63;;;30.02;100.00
31239;BME280;17871;31.584;74.450;2022-07-24T01:44:16;97724.44;;;30.07;100.00
31239;BME280;17871;31.584;74.450;2022-07-24T01:46:45;97723.97;;;30.13;100.00
31239;BME280;17871;31.584;74.450;2022-07-24T01:49:14;97720.16;;;30.26;100.00
31239;BME280;17871;31.584;74.450;2022-07-24T01:51:44;97722.63;;;30.39;100.00
31239;BME280;17871;31.584;74.450;2022-07-24T01:54:13;97728.88;;;30.38;100.00
31239;BME280;17871;31.584;74.450;2022-07-24T01:56:42;97727.31;;;30.35;100.00
31239;BME280;17871;31.584;74.450;2022-07-24T01:59:12;97728.13;;;30.47;100.00
31239;BME280;17871;31.584;74.450;2022-07-24T02:01:41;97738.97;;;30.54;100.00
31239;BME280;17871;31.584;74.450;2022-07-24T02:04:10;97739.56;;;30.57;100.00
31239;BME280;17871;31.584;74.450;2022-07-24T02:06:40;97744.84;;;30.57;100.00
31239;BME280;17871;31.584;74.450;2022-07-24T02:09:09;97742.94;;;30.59;100.00
31239;BME280;17871;31.584;74.450;2022-07-24T02:11:38;97746.19;;;30.72;100.00
31239;BME280;17871;31.584;74.450;2022-07-24T02:14:08;97750.25;;;30.56;100.00
31239;BME280;17871;31.584;74.450;2022-07-24T02:16:37;97747.47;;;30.78;100.00
31239;BME280;17871;31.584;74.450;2022-07-24T02:19:06;97750.50;;;30.73;100.00
31239;BME280;17871;31.584;74.450;2022-07-24T02:21:36;97745.69;;;30.78;100.00
31239;BME280;17871;31.584;74.450;2022-07-24T02:24:05;97740.72;;;30.64;100.00
31239;BME280;17871;31.584;74.450;2022-07-24T02:26:34;97746.56;;;30.68;100.00
31239;BME280;17871;31.584;74.450;2022-07-24T02:29:04;97738.38;;;30.92;100.00
31239;BME280;17871;31.584;74.450;2022-07-24T02:31:33;97744.63;;;31.11;100.00
31239;BME280;17871;31.584;74.450;2022-07-24T02:34:03;97738.13;;;30.95;100.00
31239;BME280;17871;31.584;74.450;2022-07-24T02:36:32;97739.34;;;30.91;100.00
31239;BME280;17871;31.584;74.450;2022-07-24T02:39:02;97729.88;;;31.09;100.00
31239;BME280;17871;31.584;74.450;2022-07-24T02:41:33;97731.88;;;31.26;100.00
31239;BME280;17871;31.584;74.450;2022-07-24T02:44:02;97726.50;;;31.37;100.00
31239;BME280;17871;31.584;74.450;2022-07-24T02:46:31;97727.53;;;31.55;100.00
31239;BME280;17871;31.584;74.450;2022-07-24T02:49:01;97725.06;;;31.63;100.00
31239;BME280;17871;31.584;74.450;2022-07-24T02:51:30;97725.34;;;31.60;100.00
31239;BME280;17871;31.584;74.450;2022-07-24T02:53:59;97720.75;;;31.62;100.00
31239;BME280;17871;31.584;74.450;2022-07-24T02:56:28;97721.28;;;31.56;100.00
31239;BME280;17871;31.584;74.450;2022-07-24T02:58:58;97717.81;;;31.56;100.00
31239;BME280;17871;31.584;74.450;2022-07-24T03:01:28;97716.75;;;31.77;100.00
31239;BME280;17871;31.584;74.450;2022-07-24T03:03:57;97713.25;;;31.67;100.00
31239;BME280;17871;31.584;74.450;2022-07-24T03:06:26;97720.06;;;31.70;100.00
31239;BME280;17871;31.584;74.450;2022-07-24T03:08:56;97719.78;;;31.82;100.00
31239;BME280;17871;31.584;74.450;2022-07-24T03:11:25;97709.22;;;31.82;100.00
31239;BME280;17871;31.584;74.450;2022-07-24T03:13:54;97709.09;;;31.74;100.00
31239;BME280;17871;31.584;74.450;2022-07-24T03:16:23;97712.81;;;31.72;100.00
31239;BME280;17871;31.584;74.450;2022-07-24T03:18:53;97711.97;;;31.62;100.00
31239;BME280;17871;31.584;74.450;2022-07-24T03:21:22;97712.44;;;31.86;100.00
31239;BME280;17871;31.584;74.450;2022-07-24T03:24:11;97711.44;;;31.68;100.00
31239;BME280;17871;31.584;74.450;2022-07-24T03:26:40;97714.91;;;31.68;100.00
31239;BME280;17871;31.584;74.450;2022-07-24T03:29:09;97712.88;;;31.91;100.00
31239;BME280;17871;31.584;74.450;2022-07-24T03:31:38;97719.50;;;31.66;100.00
31239;BME280;17871;31.584;74.450;2022-07-24T03:34:08;97725.81;;;31.94;100.00
31239;BME280;17871;31.584;74.450;2022-07-24T03:36:37;97718.19;;;32.10;100.00
31239;BME280;17871;31.584;74.450;2022-07-24T03:39:06;97722.75;;;32.08;100.00
31239;BME280;17871;31.584;74.450;2022-07-24T03:41:36;97724.44;;;32.09;100.00
31239;BME280;17871;31.584;74.450;2022-07-24T03:44:05;97725.00;;;32.13;100.00
31239;BME280;17871;31.584;74.450;2022-07-24T03:46:35;97729.31;;;32.14;100.00
31239;BME280;17871;31.584;74.450;2022-07-24T03:49:04;97732.19;;;32.01;100.00
31239;BME280;17871;31.584;74.450;2022-07-24T03:51:34;97732.50;;;32.08;100.00
31239;BME280;17871;31.584;74.450;2022-07-24T03:54:04;97740.38;;;31.88;100.00
31239;BME280;17871;31.584;74.450;2022-07-24T03:56:33;97730.69;;;32.08;100.00
31239;BME280;17871;31.584;74.450;2022-07-24T03:59:03;97730.94;;;31.96;100.00
31239;BME280;17871;31.584;74.450;2022-07-24T04:01:33;97724.59;;;32.17;100.00
31239;BME280;17871;31.584;74.450;2022-07-24T04:04:02;97726.78;;;32.22;100.00
31239;BME280;17871;31.584;74.450;2022-07-24T04:06:34;97727.47;;;32.43;100.00
31239;BME280;17871;31.584;74.450;2022-07-24T04:09:04;97731.22;;;32.40;100.00
31239;BME280;17871;31.584;74.450;2022-07-24T04:11:35;97728.97;;;32.55;100.00
31239;BME280;17871;31.584;74.450;2022-07-24T04:14:04;97734.44;;;32.63;100.00
31239;BME280;17871;31.584;74.450;2022-07-24T04:16:34;97740.66;;;32.81;100.00
31239;BME280;17871;31.584;74.450;2022-07-24T04:19:03;97736.91;;;32.74;100.00
31239;BME280;17871;31.584;74.450;2022-07-24T04:21:34;97737.88;;;32.83;100.00
31239;BME280;17871;31.584;74.450;2022-07-24T04:24:03;97733.81;;;32.88;100.00
31239;BME280;17871;31.584;74.450;2022-07-24T04:26:32;97738.41;;;32.77;100.00
31239;BME280;17871;31.584;74.450;2022-07-24T04:29:02;97746.81;;;32.72;100.00
31239;BME280;17871;31.584;74.450;2022-07-24T04:31:32;97743.72;;;32.86;100.00
31239;BME280;17871;31.584;74.450;2022-07-24T04:34:01;97746.59;;;33.03;100.00
31239;BME280;17871;31.584;74.450;2022-07-24T04:36:31;97736.66;;;33.05;100.00
31239;BME280;17871;31.584;74.450;2022-07-24T04:39:00;97749.47;;;33.19;100.00
31239;BME280;17871;31.584;74.450;2022-07-24T04:41:34;97749.19;;;33.22;100.00
31239;BME280;17871;31.584;74.450;2022-07-24T04:44:04;97751.53;;;33.25;100.00
31239;BME280;17871;31.584;74.450;2022-07-24T04:46:33;97747.63;;;33.29;100.00
31239;BME280;17871;31.584;74.450;2022-07-24T04:49:02;97753.13;;;33.45;100.00
31239;BME280;17871;31.584;74.450;2022-07-24T04:51:32;97751.91;;;33.30;100.00
31239;BME280;17871;31.584;74.450;2022-07-24T04:54:02;97747.44;;;33.67;100.00
31239;BME280;17871;31.584;74.450;2022-07-24T04:56:31;97758.13;;;33.48;100.00
31239;BME280;17871;31.584;74.450;2022-07-24T04:59:01;97753.31;;;33.34;100.00
31239;BME280;17871;31.584;74.450;2022-07-24T05:01:34;97753.03;;;33.64;100.00
31239;BME280;17871;31.584;74.450;2022-07-24T05:04:03;97749.97;;;33.86;100.00
31239;BME280;17871;31.584;74.450;2022-07-24T05:06:32;97746.63;;;34.02;100.00
31239;BME280;17871;31.584;74.450;2022-07-24T05:09:01;97750.19;;;34.11;100.00
31239;BME280;17871;31.584;74.450;2022-07-24T05:11:31;97751.47;;;34.07;100.00
31239;BME280;17871;31.584;74.450;2022-07-24T05:14:00;97750.91;;;34.13;100.00
31239;BME280;17871;31.584;74.450;2022-07-24T05:16:29;97754.34;;;33.96;100.00
31239;BME280;17871;31.584;74.450;2022-07-24T05:18:59;97747.03;;;34.07;100.00
31239;BME280;17871;31.584;74.450;2022-07-24T05:21:30;97745.59;;;34.13;100.00
31239;BME280;17871;31.584;74.450;2022-07-24T05:24:00;97743.66;;;34.15;100.00
31239;BME280;17871;31.584;74.450;2022-07-24T05:26:30;97755.72;;;34.00;99.61
31239;BME280;17871;31.584;74.450;2022-07-24T05:29:01;97755.41;;;34.03;100.00
31239;BME280;17871;31.584;74.450;2022-07-24T05:31:32;97755.59;;;34.19;100.00
31239;BME280;17871;31.584;74.450;2022-07-24T05:34:06;97747.81;;;34.17;100.00
31239;BME280;17871;31.584;74.450;2022-07-24T05:36:35;97750.22;;;34.28;100.00
31239;BME280;17871;31.584;74.450;2022-07-24T05:39:05;97753.09;;;34.35;100.00
31239;BME280;17871;31.584;74.450;2022-07-24T05:41:35;97756.59;;;34.18;99.39
31239;BME280;17871;31.584;74.450;2022-07-24T05:44:04;97750.81;;;34.40;99.73
31239;BME280;17871;31.584;74.450;2022-07-24T05:46:33;97749.25;;;34.12;98.66
31239;BME280;17871;31.584;74.450;2022-07-24T05:49:02;97758.56;;;34.33;99.39
31239;BME280;17871;31.584;74.450;2022-07-24T05:51:32;97753.34;;;34.24;98.88
31239;BME280;17871;31.584;74.450;2022-07-24T05:54:01;97754.72;;;34.28;100.00
31239;BME280;17871;31.584;74.450;2022-07-24T05:56:35;97754.78;;;34.18;100.00
31239;BME280;17871;31.584;74.450;2022-07-24T05:59:04;97757.09;;;34.39;100.00
31239;BME280;17871;31.584;74.450;2022-07-24T06:01:34;97756.13;;;34.40;100.00
31239;BME280;17871;31.584;74.450;2022-07-24T06:04:03;97762.28;;;34.23;99.84
31239;BME280;17871;31.584;74.450;2022-07-24T06:06:32;97759.09;;;34.37;99.92
31239;BME280;17871;31.584;74.450;2022-07-24T06:09:02;97753.97;;;34.61;99.10
31239;BME280;17871;31.584;74.450;2022-07-24T06:11:33;97756.88;;;34.32;100.00
31239;BME280;17871;31.584;74.450;2022-07-24T06:14:02;97754.69;;;34.63;99.57
31239;BME280;17871;31.584;74.450;2022-07-24T06:16:31;97747.16;;;34.84;97.12
31239;BME280;17871;31.584;74.450;2022-07-24T06:19:01;97751.06;;;34.64;94.79
31239;BME280;17871;31.584;74.450;2022-07-24T06:21:30;97754.00;;;34.87;95.18
31239;BME280;17871;31.584;74.450;2022-07-24T06:23:59;97746.75;;;34.71;95.09
31239;BME280;17871;31.584;74.450;2022-07-24T06:26:29;97757.97;;;34.83;95.15
31239;BME280;17871;31.584;74.450;2022-07-24T06:29:18;97758.03;;;35.17;94.54
31239;BME280;17871;31.584;74.450;2022-07-24T06:31:47;97761.63;;;35.41;92.38
31239;BME280;17871;31.584;74.450;2022-07-24T06:34:16;97749.69;;;35.54;94.64
31239;BME280;17871;31.584;74.450;2022-07-24T06:36:46;97754.06;;;35.21;91.80
31239;BME280;17871;31.584;74.450;2022-07-24T06:39:14;97755.22;;;35.18;94.59
31239;BME280;17871;31.584;74.450;2022-07-24T06:41:44;97747.59;;;35.23;95.90
31239;BME280;17871;31.584;74.450;2022-07-24T06:44:24;97751.97;;;35.07;92.98
31239;BME280;17871;31.584;74.450;2022-07-24T06:46:53;97743.81;;;35.08;93.39
31239;BME280;17871;31.584;74.450;2022-07-24T06:49:22;97742.00;;;35.09;94.56
31239;BME280;17871;31.584;74.450;2022-07-24T06:51:51;97739.16;;;35.02;94.21
31239;BME280;17871;31.584;74.450;2022-07-24T06:54:21;97734.31;;;34.98;94.27
31239;BME280;17871;31.584;74.450;2022-07-24T06:56:50;97734.41;;;35.48;93.74
31239;BME280;17871;31.584;74.450;2022-07-24T06:59:19;97735.56;;;35.45;96.37
31239;BME280;17871;31.584;74.450;2022-07-24T07:01:48;97730.72;;;35.07;98.98
31239;BME280;17871;31.584;74.450;2022-07-24T07:04:17;97739.63;;;34.98;98.30
31239;BME280;17871;31.584;74.450;2022-07-24T07:06:47;97734.59;;;35.12;97.07
31239;BME280;17871;31.584;74.450;2022-07-24T07:09:16;97736.41;;;35.46;96.86
31239;BME280;17871;31.584;74.450;2022-07-24T07:11:48;97736.00;;;35.74;98.64
31239;BME280;17871;31.584;74.450;2022-07-24T07:14:19;97727.00;;;35.59;93.61
31239;BME280;17871;31.584;74.450;2022-07-24T07:16:48;97723.94;;;35.54;95.38
31239;BME280;17871;31.584;74.450;2022-07-24T07:19:17;97721.06;;;35.31;95.12
31239;BME280;17871;31.584;74.450;2022-07-24T07:21:46;97723.09;;;35.46;94.33
31239;BME280;17871;31.584;74.450;2022-07-24T07:24:16;97715.31;;;35.52;94.99
31239;BME280;17871;31.584;74.450;2022-07-24T07:26:45;97715.25;;;35.36;91.97
31239;BME280;17871;31.584;74.450;2022-07-24T07:29:14;97709.97;;;35.44;94.44
31239;BME280;17871;31.584;74.450;2022-07-24T07:31:43;97710.47;;;35.39;94.32
31239;BME280;17871;31.584;74.450;2022-07-24T07:34:13;97706.78;;;35.40;94.17
31239;BME280;17871;31.584;74.450;2022-07-24T07:36:42;97690.44;;;35.19;95.09
31239;BME280;17871;31.584;74.450;2022-07-24T07:39:11;97689.66;;;35.35;95.27
31239;BME280;17871;31.584;74.450;2022-07-24T07:41:41;97684.75;;;35.56;95.26
31239;BME280;17871;31.584;74.450;2022-07-24T07:44:10;97680.56;;;35.54;92.26
31239;BME280;17871;31.584;74.450;2022-07-24T07:46:39;97677.00;;;35.21;91.81
31239;BME280;17871;31.584;74.450;2022-07-24T07:49:08;97671.16;;;35.59;93.48
31239;BME280;17871;31.584;74.450;2022-07-24T07:51:38;97679.16;;;35.75;94.64
31239;BME280;17871;31.584;74.450;2022-07-24T07:54:10;97670.69;;;35.80;93.66
31239;BME280;17871;31.584;74.450;2022-07-24T07:56:41;97670.72;;;35.96;93.09
31239;BME280;17871;31.584;74.450;2022-07-24T07:59:10;97668.75;;;36.22;91.88
31239;BME280;17871;31.584;74.450;2022-07-24T08:01:39;97666.06;;;36.30;90.73
31239;BME280;17871;31.584;74.450;2022-07-24T08:04:08;97675.53;;;36.33;89.98
31239;BME280;17871;31.584;74.450;2022-07-24T08:06:37;97660.25;;;36.03;91.57
31239;BME280;17871;31.584;74.450;2022-07-24T08:09:07;97662.28;;;36.09;91.99
31239;BME280;17871;31.584;74.450;2022-07-24T08:11:36;97654.59;;;36.06;90.91
31239;BME280;17871;31.584;74.450;2022-07-24T08:14:05;97651.75;;;36.23;91.11
31239;BME280;17871;31.584;74.450;2022-07-24T08:16:35;97646.44;;;36.23;88.26
31239;BME280;17871;31.584;74.450;2022-07-24T08:19:04;97632.63;;;36.28;90.61
31239;BME280;17871;31.584;74.450;2022-07-24T08:21:35;97622.66;;;36.30;89.13
31239;BME280;17871;31.584;74.450;2022-07-24T08:24:05;97616.53;;;36.21;88.17
31239;BME280;17871;31.584;74.450;2022-07-24T08:26:35;97613.03;;;36.29;88.03
31239;BME280;17871;31.584;74.450;2022-07-24T08:29:04;97597.69;;;36.23;87.98
31239;BME280;17871;31.584;74.450;2022-07-24T08:31:35;97606.97;;;36.43;87.68
31239;BME280;17871;31.584;74.450;2022-07-24T08:34:04;97600.66;;;36.60;86.99
31239;BME280;17871;31.584;74.450;2022-07-24T08:36:34;97593.44;;;36.69;86.00
31239;BME280;17871;31.584;74.450;2022-07-24T08:39:03;97589.66;;;36.63;86.99
31239;BME280;17871;31.584;74.450;2022-07-24T08:41:37;97585.69;;;36.43;87.61
31239;BME280;17871;31.584;74.450;2022-07-24T08:44:07;97581.09;;;36.21;87.21
31239;BME280;17871;31.584;74.450;2022-07-24T08:46:38;97580.69;;;36.56;86.94
31239;BME280;17871;31.584;74.450;2022-07-24T08:49:11;97579.31;;;36.68;87.61
31239;BME280;17871;31.584;74.450;2022-07-24T08:51:43;97576.34;;;36.47;85.43
31239;BME280;17871;31.584;74.450;2022-07-24T08:54:13;97566.22;;;36.42;88.46
31239;BME280;17871;31.584;74.450;2022-07-24T08:56:43;97552.06;;;36.50;85.81
31239;BME280;17871;31.584;74.450;2022-07-24T08:59:19;97543.53;;;36.63;87.09
31239;BME280;17871;31.584;74.450;2022-07-24T09:01:53;97543.03;;;36.67;89.23
31239;BME280;17871;31.584;74.450;2022-07-24T09:04:33;97530.59;;;36.52;89.16
31239;BME280;17871;31.584;74.450;2022-07-24T09:07:10;97526.47;;;36.41;86.27
31239;BME280;17871;31.584;74.450;2022-07-24T09:09:41;97525.97;;;36.37;85.65
31239;BME280;17871;31.584;74.450;2022-07-24T09:12:16;97521.72;;;36.67;84.38
31239;BME280;17871;31.584;74.450;2022-07-24T09:14:47;97516.78;;;36.56;86.37
31239;BME280;17871;31.584;74.450;2022-07-24T09:17:20;97516.78;;;36.56;86.67
31239;BME280;17871;31.584;74.450;2022-07-24T09:20:00;97519.72;;;36.69;85.33
31239;BME280;17871;31.584;74.450;2022-07-24T09:22:35;97504.34;;;36.79;82.64
31239;BME280;17871;31.584;74.450;2022-07-24T09:25:17;97510.16;;;36.83;83.61
31239;BME280;17871;31.584;74.450;2022-07-24T09:30:23;97510.56;;;37.03;81.77
31239;BME280;17871;31.584;74.450;2022-07-24T09:33:01;97517.56;;;37.04;80.48
31239;BME280;17871;31.584;74.450;2022-07-24T09:35:35;97517.28;;;36.90;80.73
31239;BME280;17871;31.584;74.450;2022-07-24T09:38:07;97513.25;;;36.95;84.66
31239;BME280;17871;31.584;74.450;2022-07-24T09:40:40;97510.88;;;37.08;82.04
31239;BME280;17871;31.584;74.450;2022-07-24T09:46:10;97510.81;;;36.85;80.79
31239;BME280;17871;31.584;74.450;2022-07-24T09:49:01;97505.00;;;36.81;83.03
31239;BME280;17871;31.584;74.450;2022-07-24T09:51:31;97508.69;;;36.72;81.20
31239;BME280;17871;31.584;74.450;2022-07-24T09:54:00;97497.38;;;36.78;81.61
31239;BME280;17871;31.584;74.450;2022-07-24T09:56:30;97494.91;;;37.00;81.60
31239;BME280;17871;31.584;74.450;2022-07-24T09:58:59;97496.91;;;36.98;79.51
31239;BME280;17871;31.584;74.450;2022-07-24T10:01:30;97502.75;;;36.62;82.64
31239;BME280;17871;31.584;74.450;2022-07-24T10:03:59;97494.44;;;36.65;82.46
31239;BME280;17871;31.584;74.450;2022-07-24T10:06:29;97503.28;;;36.50;84.31
31239;BME280;17871;31.584;74.450;2022-07-24T10:08:59;97504.59;;;36.15;83.66
31239;BME280;17871;31.584;74.450;2022-07-24T10:11:34;97500.97;;;35.91;84.90
31239;BME280;17871;31.584;74.450;2022-07-24T10:14:04;97494.34;;;35.79;87.76
31239;BME280;17871;31.584;74.450;2022-07-24T10:16:41;97500.00;;;35.60;88.64
31239;BME280;17871;31.584;74.450;2022-07-24T10:22:19;97498.59;;;36.05;87.66
31239;BME280;17871;31.584;74.450;2022-07-24T10:25:05;97497.25;;;36.17;87.09
31239;BME280;17871;31.584;74.450;2022-07-24T10:27:37;97486.63;;;36.17;86.72
31239;BME280;17871;31.584;74.450;2022-07-24T10:30:11;97463.13;;;36.28;86.55
31239;BME280;17871;31.584;74.450;2022-07-24T10:32:41;97469.00;;;36.16;87.51
31239;BME280;17871;31.584;74.450;2022-07-24T10:35:18;97460.34;;;36.22;86.82
31239;BME280;17871;31.584;74.450;2022-07-24T10:37:59;97465.59;;;36.30;84.89
31239;BME280;17871;31.584;74.450;2022-07-24T10:40:46;97459.28;;;36.31;85.26
31239;BME280;17871;31.584;74.450;2022-07-24T10:43:18;97449.72;;;36.14;85.79
31239;BME280;17871;31.584;74.450;2022-07-24T10:53:30;97437.09;;;36.08;82.70
31239;BME280;17871;31.584;74.450;2022-07-24T11:01:47;97426.56;;;36.22;83.58
31239;BME280;17871;31.584;74.450;2022-07-24T11:06:52;97407.13;;;36.14;82.77
31239;BME280;17871;31.584;74.450;2022-07-24T11:09:24;97406.16;;;36.07;84.44
31239;BME280;17871;31.584;74.450;2022-07-24T11:14:24;97406.09;;;36.23;86.80
31239;BME280;17871;31.584;74.450;2022-07-24T11:16:54;97405.16;;;36.16;83.09
31239;BME280;17871;31.584;74.450;2022-07-24T11:19:24;97415.78;;;36.16;84.63
31239;BME280;17871;31.584;74.450;2022-07-24T11:22:02;97415.84;;;36.38;85.20
31239;BME280;17871;31.584;74.450;2022-07-24T11:24:32;97419.34;;;36.39;85.58
31239;BME280;17871;31.584;74.450;2022-07-24T11:27:15;97419.97;;;36.41;83.37
31239;BME280;17871;31.584;74.450;2022-07-24T11:29:45;97414.59;;;36.49;84.25
31239;BME280;17871;31.584;74.450;2022-07-24T11:32:15;97426.28;;;36.48;86.74
31239;BME280;17871;31.584;74.450;2022-07-24T11:34:49;97419.91;;;36.49;83.07
31239;BME280;17871;31.584;74.450;2022-07-24T11:37:18;97424.00;;;36.37;80.21
31239;BME280;17871;31.584;74.450;2022-07-24T11:39:49;97431.69;;;36.32;81.37
31239;BME280;17871;31.584;74.450;2022-07-24T11:42:18;97428.69;;;36.27;82.93
31239;BME280;17871;31.584;74.450;2022-07-24T11:44:49;97440.03;;;36.21;83.51
31239;BME280;17871;31.584;74.450;2022-07-24T11:47:21;97448.06;;;36.05;83.88
31239;BME280;17871;31.584;74.450;2022-07-24T11:49:52;97452.38;;;36.14;84.47
31239;BME280;17871;31.584;74.450;2022-07-24T11:52:22;97453.94;;;35.84;84.86
31239;BME280;17871;31.584;74.450;2022-07-24T11:55:28;97450.13;;;35.78;86.09
31239;BME280;17871;31.584;74.450;2022-07-24T11:57:57;97444.84;;;35.62;88.91
31239;BME280;17871;31.584;74.450;2022-07-24T12:00:47;97446.16;;;35.66;88.60
31239;BME280;17871;31.584;74.450;2022-07-24T12:03:16;97445.50;;;35.56;87.61
31239;BME280;17871;31.584;74.450;2022-07-24T12:05:46;97445.97;;;35.43;87.99
31239;BME280;17871;31.584;74.450;2022-07-24T12:08:18;97446.66;;;35.37;89.98
31239;BME280;17871;31.584;74.450;2022-07-24T12:10:55;97448.50;;;35.29;91.08
31239;BME280;17871;31.584;74.450;2022-07-24T12:13:25;97457.44;;;35.12;91.70
31239;BME280;17871;31.584;74.450;2022-07-24T12:15:54;97462.72;;;34.96;88.97
31239;BME280;17871;31.584;74.450;2022-07-24T12:18:24;97455.91;;;34.85;87.89
31239;BME280;17871;31.584;74.450;2022-07-24T12:21:01;97452.09;;;34.87;88.69
31239;BME280;17871;31.584;74.450;2022-07-24T12:23:32;97457.06;;;34.82;94.12
31239;BME280;17871;31.584;74.450;2022-07-24T12:26:01;97451.53;;;34.68;93.98
31239;BME280;17871;31.584;74.450;2022-07-24T12:28:31;97453.88;;;34.63;94.61
31239;BME280;17871;31.584;74.450;2022-07-24T12:31:06;97447.03;;;34.60;97.18
31239;BME280;17871;31.584;74.450;2022-07-24T12:33:38;97455.88;;;34.35;98.41
31239;BME280;17871;31.584;74.450;2022-07-24T12:36:11;97464.56;;;34.45;97.94
31239;BME280;17871;31.584;74.450;2022-07-24T12:38:50;97466.03;;;34.31;99.71
31239;BME280;17871;31.584;74.450;2022-07-24T12:41:22;97461.84;;;34.29;100.00
31239;BME280;17871;31.584;74.450;2022-07-24T12:43:54;97468.50;;;34.33;100.00
31239;BME280;17871;31.584;74.450;2022-07-24T12:46:37;97478.25;;;34.24;100.00
31239;BME280;17871;31.584;74.450;2022-07-24T12:49:08;97485.31;;;34.16;97.84
31239;BME280;17871;31.584;74.450;2022-07-24T12:51:58;97480.84;;;34.16;98.52
31239;BME280;17871;31.584;74.450;2022-07-24T12:54:33;97491.03;;;34.03;100.00
31239;BME280;17871;31.584;74.450;2022-07-24T12:57:11;97491.56;;;34.07;100.00
31239;BME280;17871;31.584;74.450;2022-07-24T12:59:48;97496.13;;;33.97;100.00
31239;BME280;17871;31.584;74.450;2022-07-24T13:02:20;97500.09;;;33.92;100.00
31239;BME280;17871;31.584;74.450;2022-07-24T13:04:53;97493.38;;;34.06;100.00
31239;BME280;17871;31.584;74.450;2022-07-24T13:07:24;97499.78;;;33.96;100.00
31239;BME280;17871;31.584;74.450;2022-07-24T13:09:54;97504.06;;;33.88;100.00
31239;BME280;17871;31.584;74.450;2022-07-24T13:12:24;97500.69;;;33.78;100.00
31239;BME280;17871;31.584;74.450;2022-07-24T13:14:53;97501.78;;;33.76;100.00
31239;BME280;17871;31.584;74.450;2022-07-24T13:17:23;97502.19;;;33.81;100.00
31239;BME280;17871;31.584;74.450;2022-07-24T13:19:52;97501.66;;;33.77;100.00
31239;BME280;17871;31.584;74.450;2022-07-24T13:22:21;97504.75;;;33.73;100.00
31239;BME280;17871;31.584;74.450;2022-07-24T13:24:51;97501.28;;;33.72;100.00
31239;BME280;17871;31.584;74.450;2022-07-24T13:27:20;97500.31;;;33.73;100.00
31239;BME280;17871;31.584;74.450;2022-07-24T13:29:50;97509.53;;;33.69;100.00
31239;BME280;17871;31.584;74.450;2022-07-24T13:32:19;97524.44;;;33.62;100.00